Time;durP1;ratioP1;P1;durP2;ratioP2;P2;SDS_P1;SDS_P2;PMS_P1;PMS_P2;Temp;Humidity;BMP_temperature;BMP_pressure;BME280_temperature;BME280_humidity;BME280_pressure;Samples;Min_cycle;Max_cycle;Signal;HPM_P1;HPM_P2
2022/08/16 00:01:22;;;;;;;14.97;13.53;;;22.50;99.90;;;;;;4896641;29;20249;-58
2022/08/16 00:03:53;;;;;;;13.70;12.50;;;22.50;99.90;;;;;;4897441;29;20265;-57
2022/08/16 00:06:22;;;;;;;13.23;11.93;;;22.50;99.90;;;;;;4896945;29;20333;-58
2022/08/16 00:08:51;;;;;;;13.30;11.80;;;22.50;99.90;;;;;;4889517;29;20230;-58
2022/08/16 00:11:20;;;;;;;13.90;12.63;;;22.50;99.90;;;;;;4880489;29;20312;-58
2022/08/16 00:13:51;;;;;;;13.93;12.50;;;22.50;99.90;;;;;;4883499;29;20743;-58
2022/08/16 00:16:22;;;;;;;13.07;11.97;;;22.40;99.90;;;;;;4881709;29;20238;-58
2022/08/16 00:19:11;;;;;;;14.43;13.03;;;22.40;99.90;;;;;;4881908;29;20214;-58
2022/08/16 00:21:41;;;;;;;13.83;12.53;;;22.40;99.90;;;;;;4881311;29;20230;-58
2022/08/16 00:24:10;;;;;;;15.90;14.50;;;22.40;99.90;;;;;;4881860;29;20337;-58
2022/08/16 00:26:40;;;;;;;13.67;12.57;;;22.40;99.90;;;;;;4881604;29;20226;-58
2022/08/16 00:29:15;;;;;;;14.50;13.20;;;22.40;99.90;;;;;;4874364;29;20253;-59
2022/08/16 00:31:45;;;;;;;14.60;13.10;;;22.30;99.90;;;;;;4880796;29;20341;-57
2022/08/16 00:34:29;;;;;;;13.93;12.53;;;22.30;99.90;;;;;;4881445;29;20346;-57
2022/08/16 00:37:12;;;;;;;13.70;12.53;;;22.30;99.90;;;;;;4866393;29;20229;-57
2022/08/16 00:39:46;;;;;;;14.57;13.30;;;22.30;99.90;;;;;;4894015;29;20268;-58
2022/08/16 00:42:24;;;;;;;15.17;13.77;;;22.20;99.90;;;;;;4899961;29;20273;-59
2022/08/16 00:45:03;;;;;;;15.20;13.70;;;22.20;99.90;;;;;;4864108;29;20225;-58
2022/08/16 00:47:38;;;;;;;16.07;13.27;;;22.20;99.90;;;;;;4880939;29;20247;-58
2022/08/16 00:50:09;;;;;;;16.10;14.60;;;22.20;99.90;;;;;;4879228;29;20225;-58
2022/08/16 00:52:39;;;;;;;15.53;14.13;;;22.20;99.90;;;;;;4880926;29;20229;-58
2022/08/16 00:55:21;;;;;;;15.90;14.40;;;22.20;99.90;;;;;;4881365;29;20238;-58
2022/08/16 00:57:52;;;;;;;15.13;13.73;;;22.20;99.90;;;;;;4880789;29;20674;-58
2022/08/16 01:00:31;;;;;;;16.43;14.73;;;22.10;99.90;;;;;;4880257;29;20285;-58
2022/08/16 01:03:03;;;;;;;14.47;13.10;;;22.10;99.90;;;;;;4864200;29;20269;-58
2022/08/16 01:05:32;;;;;;;14.77;13.47;;;22.00;99.90;;;;;;4880784;29;20222;-58
2022/08/16 01:08:01;;;;;;;16.47;15.07;;;22.10;99.90;;;;;;4880522;29;20309;-58
2022/08/16 01:10:51;;;;;;;14.63;13.27;;;22.00;99.90;;;;;;4861932;29;20241;-58
2022/08/16 01:13:22;;;;;;;14.27;12.97;;;22.00;99.90;;;;;;4868379;29;20230;-58
2022/08/16 01:15:58;;;;;;;14.73;13.40;;;22.00;99.90;;;;;;4880219;29;20237;-59
2022/08/16 01:18:29;;;;;;;15.37;13.80;;;22.00;99.90;;;;;;4863228;29;20313;-57
2022/08/16 01:21:25;;;;;;;16.23;14.83;;;21.90;99.90;;;;;;4879908;29;20240;-59
2022/08/16 01:24:18;;;;;;;15.10;13.60;;;21.90;99.90;;;;;;4863880;29;20634;-58
2022/08/16 01:27:14;;;;;;;14.57;13.13;;;21.80;99.90;;;;;;4880122;29;20218;-58
2022/08/16 01:29:48;;;;;;;15.47;14.07;;;21.80;99.90;;;;;;4862989;29;20277;-58
2022/08/16 01:32:28;;;;;;;15.50;14.10;;;21.80;99.90;;;;;;4879834;29;20253;-58
2022/08/16 01:35:05;;;;;;;15.80;14.30;;;21.70;99.90;;;;;;4863751;29;20241;-58
2022/08/16 01:37:40;;;;;;;17.37;15.70;;;21.70;99.90;;;;;;4879994;29;20242;-58
2022/08/16 01:40:14;;;;;;;16.93;15.53;;;21.70;99.90;;;;;;4848540;29;20295;-58
2022/08/16 01:42:44;;;;;;;18.30;16.70;;;21.70;99.90;;;;;;4846652;29;20264;-58
2022/08/16 01:45:15;;;;;;;18.63;16.80;;;21.60;99.90;;;;;;4873036;29;20282;-58
2022/08/16 01:47:50;;;;;;;18.43;16.73;;;21.70;99.90;;;;;;4879635;29;20296;-59
2022/08/16 01:50:22;;;;;;;17.47;15.73;;;21.60;99.90;;;;;;4862883;29;20276;-58
2022/08/16 01:53:12;;;;;;;17.57;15.97;;;21.60;99.90;;;;;;4862113;29;20646;-58
2022/08/16 01:56:02;;;;;;;17.67;16.07;;;21.50;99.90;;;;;;4862822;29;20241;-58
2022/08/16 01:58:32;;;;;;;17.33;15.83;;;21.50;99.90;;;;;;4858852;29;20226;-58
2022/08/16 02:01:06;;;;;;;19.17;17.47;;;21.50;99.90;;;;;;4862488;29;20242;-58
2022/08/16 02:03:35;;;;;;;18.83;17.23;;;21.50;99.90;;;;;;4863574;29;20606;-58
2022/08/16 02:06:07;;;;;;;18.33;16.73;;;21.40;99.90;;;;;;4863079;29;20277;-59
2022/08/16 02:08:35;;;;;;;20.23;18.47;;;21.40;99.90;;;;;;4862977;29;20722;-58
2022/08/16 02:11:08;;;;;;;19.73;18.00;;;21.40;99.90;;;;;;4880198;29;20229;-58
2022/08/16 02:13:40;;;;;;;20.23;18.43;;;21.40;99.90;;;;;;4874015;29;20606;-58
2022/08/16 02:16:13;;;;;;;20.83;19.03;;;21.30;99.90;;;;;;4862647;29;20234;-58
2022/08/16 02:18:46;;;;;;;19.43;17.63;;;21.30;99.90;;;;;;4878982;29;20331;-58
2022/08/16 02:21:15;;;;;;;20.63;18.83;;;21.30;99.90;;;;;;4886170;29;20650;-58
2022/08/16 02:23:45;;;;;;;19.63;17.73;;;21.30;99.90;;;;;;4879196;29;20626;-58
2022/08/16 02:26:15;;;;;;;19.67;17.87;;;21.30;99.90;;;;;;4879961;29;20282;-58
2022/08/16 02:28:46;;;;;;;19.80;17.90;;;21.20;99.90;;;;;;4862363;29;20255;-58
2022/08/16 02:31:19;;;;;;;19.70;17.83;;;21.20;99.90;;;;;;4879146;29;20698;-58
2022/08/16 02:34:08;;;;;;;20.33;18.43;;;21.20;99.90;;;;;;4878625;29;20256;-58
2022/08/16 02:36:40;;;;;;;20.30;18.50;;;21.20;99.90;;;;;;4862374;29;20262;-58
2022/08/16 02:39:19;;;;;;;21.23;19.30;;;21.20;99.90;;;;;;4864694;29;20233;-57
2022/08/16 02:41:52;;;;;;;21.60;19.50;;;21.20;99.90;;;;;;4862672;29;20233;-58
2022/08/16 02:44:23;;;;;;;21.13;19.13;;;21.10;99.90;;;;;;4884376;29;20222;-58
2022/08/16 02:46:55;;;;;;;21.27;19.30;;;21.10;99.90;;;;;;4862392;29;20249;-58
2022/08/16 02:49:25;;;;;;;20.03;18.13;;;21.10;99.90;;;;;;4862296;29;20230;-58
2022/08/16 02:52:15;;;;;;;19.70;17.90;;;21.10;99.90;;;;;;4846136;29;20647;-57
2022/08/16 02:55:01;;;;;;;20.20;18.40;;;21.10;99.90;;;;;;4879315;29;20239;-58
2022/08/16 02:57:32;;;;;;;22.47;20.20;;;21.00;99.90;;;;;;4879028;29;20585;-58
2022/08/16 03:00:04;;;;;;;21.83;19.80;;;21.10;99.90;;;;;;4879047;29;20230;-58
2022/08/16 03:02:55;;;;;;;22.07;20.07;;;21.10;99.90;;;;;;4864884;29;20696;-58
2022/08/16 03:05:26;;;;;;;21.07;19.17;;;21.10;99.90;;;;;;4862314;29;20229;-58
2022/08/16 03:07:59;;;;;;;23.00;20.80;;;21.10;99.90;;;;;;4862388;29;20228;-58
2022/08/16 03:10:31;;;;;;;20.93;19.13;;;21.00;99.90;;;;;;4861998;29;20232;-58
2022/08/16 03:13:04;;;;;;;21.97;19.97;;;21.00;99.90;;;;;;4865410;29;20236;-58
2022/08/16 03:15:40;;;;;;;21.97;19.93;;;21.00;99.90;;;;;;4861717;29;20230;-58
2022/08/16 03:18:10;;;;;;;22.70;20.53;;;21.00;99.90;;;;;;4850791;29;20594;-58
2022/08/16 03:20:58;;;;;;;21.97;20.07;;;21.00;99.90;;;;;;4846498;29;20701;-59
2022/08/16 03:23:27;;;;;;;22.80;20.80;;;20.90;99.90;;;;;;4843708;29;20242;-58
2022/08/16 03:26:04;;;;;;;22.50;20.37;;;21.00;99.90;;;;;;4843556;29;20238;-58
2022/08/16 03:28:34;;;;;;;23.33;21.13;;;21.00;99.90;;;;;;4843119;29;20258;-58
2022/08/16 03:31:03;;;;;;;23.63;21.33;;;20.90;99.90;;;;;;4854889;29;20245;-58
2022/08/16 03:33:32;;;;;;;22.27;20.23;;;20.90;99.90;;;;;;4861920;29;20248;-58
2022/08/16 03:36:02;;;;;;;23.30;21.20;;;20.90;99.90;;;;;;4878784;29;20245;-58
2022/08/16 03:38:56;;;;;;;23.97;21.70;;;20.90;99.90;;;;;;4859414;29;20237;-58
2022/08/16 03:41:25;;;;;;;22.27;20.07;;;20.90;99.90;;;;;;4860465;29;20308;-59
2022/08/16 03:44:15;;;;;;;22.30;20.17;;;20.90;99.90;;;;;;4867292;29;20226;-58
2022/08/16 03:47:04;;;;;;;24.67;22.37;;;20.90;99.90;;;;;;4867073;29;20284;-58
2022/08/16 03:49:39;;;;;;;23.87;21.50;;;20.90;99.90;;;;;;4852457;29;20268;-58
2022/08/16 03:52:09;;;;;;;23.33;21.03;;;20.90;99.90;;;;;;4862063;29;20670;-58
2022/08/16 03:54:38;;;;;;;24.73;22.43;;;20.80;99.90;;;;;;4864083;29;20241;-58
2022/08/16 03:57:25;;;;;;;22.73;20.67;;;20.80;99.90;;;;;;4847241;29;20306;-58
2022/08/16 04:00:14;;;;;;;22.77;20.77;;;20.80;99.90;;;;;;4863261;29;20705;-58
2022/08/16 04:03:06;;;;;;;22.47;20.37;;;20.80;99.90;;;;;;4841812;29;20236;-58
2022/08/16 04:05:46;;;;;;;22.73;20.70;;;20.80;99.90;;;;;;4864961;29;20743;-58
2022/08/16 04:08:18;;;;;;;22.60;20.50;;;20.80;99.90;;;;;;4858760;29;20225;-58
2022/08/16 04:10:55;;;;;;;23.10;21.03;;;20.80;99.90;;;;;;4865180;29;20732;-58
2022/08/16 04:13:27;;;;;;;22.03;19.97;;;20.80;99.90;;;;;;4856663;29;20235;-58
2022/08/16 04:16:18;;;;;;;22.47;20.47;;;20.80;99.90;;;;;;4839867;29;20226;-58
2022/08/16 04:18:57;;;;;;;21.07;19.17;;;20.80;99.90;;;;;;4861286;29;20234;-59
2022/08/16 04:21:30;;;;;;;21.50;19.50;;;20.70;99.90;;;;;;4864744;29;20237;-59
2022/08/16 04:24:00;;;;;;;21.47;19.37;;;20.70;99.90;;;;;;4864924;29;20236;-58
2022/08/16 04:26:31;;;;;;;22.97;20.87;;;20.70;99.90;;;;;;4860748;29;20287;-58
2022/08/16 04:29:01;;;;;;;22.90;20.80;;;20.70;99.90;;;;;;4863297;29;20246;-58
2022/08/16 04:31:53;;;;;;;21.93;19.73;;;20.70;99.90;;;;;;4864177;29;20238;-58
2022/08/16 04:34:31;;;;;;;23.67;21.33;;;20.70;99.90;;;;;;4881635;29;20586;-59
2022/08/16 04:37:01;;;;;;;22.93;20.93;;;20.70;99.90;;;;;;4858922;29;20227;-58
2022/08/16 04:39:32;;;;;;;22.20;20.13;;;20.70;99.90;;;;;;4846039;29;20246;-58
2022/08/16 04:42:16;;;;;;;24.30;22.03;;;20.70;99.90;;;;;;4855122;29;20230;-58
2022/08/16 04:44:46;;;;;;;22.07;20.07;;;20.70;99.90;;;;;;4865766;29;20243;-58
2022/08/16 04:47:30;;;;;;;21.90;19.90;;;20.70;99.90;;;;;;4863789;29;20233;-59
2022/08/16 04:50:06;;;;;;;21.40;19.33;;;20.60;99.90;;;;;;4863003;29;20714;-58
2022/08/16 04:52:35;;;;;;;20.67;18.77;;;20.70;99.90;;;;;;4863745;29;20587;-58
2022/08/16 04:55:09;;;;;;;20.77;18.73;;;20.70;99.90;;;;;;4877466;29;20241;-58
2022/08/16 04:57:41;;;;;;;20.90;18.90;;;20.60;99.90;;;;;;4863041;29;20221;-58
2022/08/16 05:00:12;;;;;;;21.27;19.20;;;20.70;99.90;;;;;;4864230;29;20289;-59
2022/08/16 05:03:13;;;;;;;19.33;17.50;;;20.70;99.90;;;;;;4863877;29;20253;-58
2022/08/16 05:05:47;;;;;;;18.90;17.20;;;20.70;99.90;;;;;;4863952;29;20241;-58
2022/08/16 05:08:30;;;;;;;19.47;17.67;;;20.70;99.90;;;;;;4847155;29;20317;-58
2022/08/16 05:11:21;;;;;;;18.73;17.07;;;20.80;99.90;;;;;;4862064;29;20230;-58
2022/08/16 05:13:50;;;;;;;18.93;17.03;;;20.80;99.90;;;;;;4857756;29;20234;-58
2022/08/16 05:16:24;;;;;;;18.27;16.47;;;20.90;99.90;;;;;;4861511;29;20733;-58
2022/08/16 05:19:01;;;;;;;17.30;15.60;;;20.90;99.90;;;;;;4870986;29;20722;-58
2022/08/16 05:21:34;;;;;;;17.40;15.70;;;20.90;99.90;;;;;;4846432;29;20613;-59
2022/08/16 05:24:08;;;;;;;17.80;16.10;;;20.90;99.90;;;;;;4841550;29;20773;-59
2022/08/16 05:26:38;;;;;;;17.17;15.43;;;20.90;99.90;;;;;;4842761;29;20276;-57
2022/08/16 05:29:11;;;;;;;18.07;16.40;;;20.90;99.90;;;;;;4847839;29;20230;-58
2022/08/16 05:31:57;;;;;;;17.90;16.17;;;20.90;99.90;;;;;;4835626;29;20707;-58
2022/08/16 05:34:28;;;;;;;17.47;15.73;;;21.00;99.90;;;;;;4845023;29;20308;-58
2022/08/16 05:36:59;;;;;;;18.40;16.70;;;21.00;99.90;;;;;;4865730;29;20654;-57
2022/08/16 05:39:34;;;;;;;16.63;15.00;;;21.10;99.90;;;;;;4832728;29;20241;-58
2022/08/16 05:42:08;;;;;;;17.80;16.10;;;21.10;99.90;;;;;;4864328;29;20221;-58
2022/08/16 05:44:38;;;;;;;17.07;15.40;;;21.10;99.90;;;;;;4845025;29;20227;-58
2022/08/16 05:47:11;;;;;;;16.80;15.20;;;21.10;99.90;;;;;;4842577;29;20252;-58
2022/08/16 05:49:46;;;;;;;16.20;14.57;;;21.20;99.90;;;;;;4831061;29;20635;-59
2022/08/16 05:52:20;;;;;;;15.50;13.97;;;21.30;99.90;;;;;;4844021;29;20234;-58
2022/08/16 05:54:55;;;;;;;15.03;13.53;;;21.40;99.90;;;;;;4843267;29;20238;-58
2022/08/16 05:57:30;;;;;;;16.40;14.90;;;21.50;99.90;;;;;;4844271;29;20737;-58
2022/08/16 06:00:05;;;;;;;16.67;15.17;;;21.60;99.90;;;;;;4860923;29;20230;-58
2022/08/16 06:02:40;;;;;;;15.07;13.57;;;21.80;99.90;;;;;;4859787;29;20233;-58
2022/08/16 06:05:36;;;;;;;15.43;13.87;;;21.90;99.90;;;;;;4840621;29;20234;-58
2022/08/16 06:08:12;;;;;;;13.93;12.80;;;22.00;99.90;;;;;;4860141;29;20324;-58
2022/08/16 06:11:05;;;;;;;15.63;14.07;;;22.10;99.90;;;;;;4874159;29;20231;-58
2022/08/16 06:13:42;;;;;;;15.57;14.10;;;22.20;99.90;;;;;;4847626;29;20258;-58
2022/08/16 06:16:35;;;;;;;15.33;13.93;;;22.20;99.90;;;;;;4838902;29;20226;-58
2022/08/16 06:19:05;;;;;;;16.53;14.93;;;22.40;99.90;;;;;;4861105;29;20264;-58
2022/08/16 06:21:41;;;;;;;15.30;13.80;;;22.50;99.90;;;;;;4854143;29;20797;-58
2022/08/16 06:24:10;;;;;;;13.33;11.70;;;22.50;99.90;;;;;;4850415;29;20288;-58
2022/08/16 06:27:01;;;;;;;14.60;13.20;;;22.60;99.90;;;;;;4861468;29;20230;-58
2022/08/16 06:29:32;;;;;;;14.23;12.83;;;22.70;99.90;;;;;;4860755;29;20805;-58
2022/08/16 06:32:01;;;;;;;12.33;11.13;;;22.80;99.90;;;;;;4856501;29;20324;-58
2022/08/16 06:34:31;;;;;;;12.40;11.20;;;23.10;99.90;;;;;;4858981;29;20238;-58
2022/08/16 06:37:21;;;;;;;10.70;9.80;;;23.20;99.90;;;;;;4854618;29;20261;-58
2022/08/16 06:39:51;;;;;;;10.60;9.53;;;23.40;99.90;;;;;;4853505;29;20246;-58
2022/08/16 06:42:27;;;;;;;14.00;12.53;;;23.40;99.90;;;;;;4847170;29;20246;-58
2022/08/16 06:45:12;;;;;;;11.70;10.53;;;23.40;99.90;;;;;;4862535;29;20239;-58
2022/08/16 06:47:42;;;;;;;12.70;11.50;;;23.40;99.90;;;;;;4861919;29;20273;-58
2022/08/16 06:50:26;;;;;;;11.87;10.80;;;23.50;99.90;;;;;;4861066;29;20237;-58
2022/08/16 06:53:01;;;;;;;12.57;11.37;;;23.70;99.90;;;;;;4860162;29;20321;-58
2022/08/16 06:55:39;;;;;;;11.07;10.10;;;23.70;99.90;;;;;;4850602;29;20225;-57
2022/08/16 06:58:12;;;;;;;11.77;10.37;;;23.80;99.90;;;;;;4872259;29;20228;-57
2022/08/16 07:01:04;;;;;;;10.87;9.87;;;23.70;99.90;;;;;;4861317;29;20331;-57
2022/08/16 07:03:46;;;;;;;11.87;10.67;;;23.60;99.90;;;;;;4858527;29;20782;-56
2022/08/16 07:06:30;;;;;;;15.63;12.47;;;23.60;99.90;;;;;;4856126;29;20600;-57
2022/08/16 07:09:02;;;;;;;12.53;11.40;;;23.60;99.90;;;;;;4861974;29;20266;-57
2022/08/16 07:11:38;;;;;;;12.43;11.07;;;23.60;99.90;;;;;;4861538;29;20234;-57
2022/08/16 07:14:20;;;;;;;11.20;10.10;;;23.70;99.90;;;;;;4866710;29;20584;-57
2022/08/16 07:16:58;;;;;;;10.93;9.83;;;23.80;99.90;;;;;;4861479;29;20249;-57
2022/08/16 07:19:31;;;;;;;13.53;12.27;;;23.80;99.90;;;;;;4855851;29;20222;-58
2022/08/16 07:22:22;;;;;;;12.27;10.73;;;23.80;99.90;;;;;;4847415;29;20234;-57
2022/08/16 07:25:14;;;;;;;14.13;11.20;;;24.00;99.90;;;;;;4866038;29;20636;-58
2022/08/16 07:27:44;;;;;;;11.93;10.73;;;24.20;99.90;;;;;;4853631;29;20252;-58
2022/08/16 07:30:18;;;;;;;11.97;10.67;;;24.30;99.90;;;;;;4845308;29;20245;-58
2022/08/16 07:33:08;;;;;;;18.20;13.37;;;24.50;99.90;;;;;;4847584;29;20255;-57
2022/08/16 07:35:38;;;;;;;12.77;11.13;;;24.60;99.90;;;;;;4845015;29;20314;-57
2022/08/16 07:38:17;;;;;;;11.90;10.70;;;24.70;99.90;;;;;;4840169;29;20317;-58
2022/08/16 07:40:55;;;;;;;10.17;9.10;;;24.80;99.90;;;;;;4843821;29;20230;-57
2022/08/16 07:43:32;;;;;;;12.73;10.30;;;24.90;99.90;;;;;;4843776;29;20227;-57
2022/08/16 07:46:04;;;;;;;13.83;10.10;;;25.10;99.90;;;;;;4848423;29;20296;-57
2022/08/16 07:48:52;;;;;;;11.13;10.03;;;25.40;99.90;;;;;;4848322;29;20755;-57
2022/08/16 07:51:22;;;;;;;12.73;10.80;;;25.50;99.90;;;;;;4846769;29;20239;-57
2022/08/16 07:53:51;;;;;;;12.23;9.90;;;25.40;99.90;;;;;;4878876;29;20315;-57
2022/08/16 07:56:41;;;;;;;10.37;9.37;;;25.40;99.90;;;;;;4846285;29;20735;-57
2022/08/16 07:59:12;;;;;;;11.33;9.80;;;25.30;99.90;;;;;;4852501;29;20259;-57
2022/08/16 08:01:43;;;;;;;10.23;9.23;;;25.30;99.90;;;;;;4861583;29;20240;-57
2022/08/16 08:04:12;;;;;;;10.47;9.47;;;25.40;99.90;;;;;;4846221;29;20225;-57
2022/08/16 08:06:44;;;;;;;15.00;12.47;;;25.60;99.90;;;;;;4850846;29;20237;-57
2022/08/16 08:09:18;;;;;;;11.83;10.10;;;25.60;99.90;;;;;;4846936;29;21394;-57
2022/08/16 08:11:50;;;;;;;10.27;9.30;;;25.60;99.90;;;;;;4845635;29;20225;-57
2022/08/16 08:14:33;;;;;;;12.17;9.50;;;25.70;99.90;;;;;;4842071;29;20308;-57
2022/08/16 08:17:03;;;;;;;11.80;9.93;;;25.80;99.90;;;;;;4857255;29;20232;-57
2022/08/16 08:19:40;;;;;;;11.20;10.03;;;25.80;99.90;;;;;;4849548;29;20256;-58
2022/08/16 08:22:21;;;;;;;11.60;10.43;;;25.70;99.90;;;;;;4858713;29;20234;-58
2022/08/16 08:24:54;;;;;;;11.03;9.57;;;25.80;99.90;;;;;;4880301;29;20233;-58
2022/08/16 08:27:32;;;;;;;11.63;9.93;;;25.90;99.90;;;;;;4882492;29;20747;-58
2022/08/16 08:30:03;;;;;;;11.80;10.00;;;26.10;99.90;;;;;;4863945;29;20235;-57
2022/08/16 08:32:54;;;;;;;13.53;10.93;;;26.30;99.90;;;;;;4860507;29;20252;-57
2022/08/16 08:35:33;;;;;;;12.20;10.10;;;26.60;99.90;;;;;;4861837;29;20231;-57
2022/08/16 08:38:06;;;;;;;12.40;10.03;;;26.80;99.90;;;;;;4865798;29;20609;-58
2022/08/16 08:40:37;;;;;;;14.07;12.60;;;26.90;99.90;;;;;;4874741;29;20231;-58
2022/08/16 08:43:11;;;;;;;11.20;10.20;;;26.80;99.90;;;;;;4861640;29;20292;-57
2022/08/16 08:45:53;;;;;;;11.80;10.27;;;26.90;99.90;;;;;;4873245;29;20241;-58
2022/08/16 08:48:24;;;;;;;11.00;9.90;;;26.90;99.90;;;;;;4851276;29;20736;-58
2022/08/16 08:51:05;;;;;;;11.67;10.57;;;26.80;99.90;;;;;;4856197;29;20287;-58
2022/08/16 08:53:42;;;;;;;12.00;10.80;;;26.90;99.90;;;;;;4853993;29;20230;-58
2022/08/16 08:56:10;;;;;;;11.83;10.73;;;27.10;99.90;;;;;;4854120;29;20722;-58
2022/08/16 08:58:59;;;;;;;11.63;10.63;;;27.70;99.90;;;;;;4853739;29;20253;-58
2022/08/16 09:01:42;;;;;;;15.20;13.77;;;28.20;99.90;;;;;;4852499;29;20636;-59
2022/08/16 09:04:25;;;;;;;12.00;9.90;;;28.40;99.90;;;;;;4869432;29;20229;-58
2022/08/16 09:06:55;;;;;;;8.77;8.00;;;29.10;99.90;;;;;;4865903;29;20337;-59
2022/08/16 09:09:29;;;;;;;10.00;9.10;;;29.50;99.90;;;;;;4849868;29;20244;-58
2022/08/16 09:12:03;;;;;;;9.97;9.03;;;29.70;99.90;;;;;;4848237;29;20238;-58
2022/08/16 09:14:48;;;;;;;11.10;8.60;;;29.90;99.90;;;;;;4846372;29;20306;-58
2022/08/16 09:17:24;;;;;;;9.10;8.30;;;30.00;99.90;;;;;;4853986;29;20268;-58
2022/08/16 09:20:14;;;;;;;9.07;8.17;;;30.10;99.90;;;;;;4852919;29;20729;-58
2022/08/16 09:22:44;;;;;;;8.27;7.47;;;30.40;99.90;;;;;;4849417;29;20352;-58
2022/08/16 09:25:22;;;;;;;9.77;8.83;;;30.80;99.90;;;;;;4872607;29;20248;-58
2022/08/16 09:27:55;;;;;;;8.63;6.50;;;30.40;99.90;;;;;;4857314;29;20236;-58
2022/08/16 09:30:33;;;;;;;7.60;6.27;;;30.70;99.90;;;;;;4852178;29;20760;-58
2022/08/16 09:33:11;;;;;;;8.80;7.37;;;30.90;99.90;;;;;;4863889;29;21382;-59
2022/08/16 09:35:40;;;;;;;8.30;7.13;;;31.30;99.90;;;;;;4869346;29;20823;-58
2022/08/16 09:38:12;;;;;;;10.40;7.20;;;31.50;99.90;;;;;;4867667;29;20711;-59
2022/08/16 09:41:01;;;;;;;7.53;6.40;;;31.70;99.90;;;;;;4868761;29;20246;-59
2022/08/16 09:43:30;;;;;;;9.60;8.63;;;31.40;99.90;;;;;;4865979;29;20267;-58
2022/08/16 09:46:19;;;;;;;10.60;7.73;;;31.20;99.90;;;;;;4869768;29;20234;-58
2022/08/16 09:49:08;;;;;;;9.13;6.87;;;31.10;99.90;;;;;;4868393;29;20226;-59
2022/08/16 09:51:39;;;;;;;10.17;8.07;;;31.20;99.90;;;;;;4868820;29;20558;-58
2022/08/16 09:54:07;;;;;;;9.83;7.23;;;31.40;99.90;;;;;;4860012;29;20239;-58
2022/08/16 09:56:39;;;;;;;7.30;6.60;;;31.20;99.90;;;;;;4861230;29;20326;-58
2022/08/16 09:59:21;;;;;;;8.47;6.23;;;30.90;99.90;;;;;;4873276;29;20233;-59
2022/08/16 10:01:52;;;;;;;8.27;5.73;;;31.20;99.90;;;;;;4873495;29;20253;-59
2022/08/16 10:04:21;;;;;;;7.47;6.77;;;31.80;99.90;;;;;;4866660;29;20334;-59
2022/08/16 10:07:00;;;;;;;7.73;6.97;;;31.50;99.90;;;;;;4869660;29;20712;-58
2022/08/16 10:09:33;;;;;;;7.37;5.80;;;31.00;99.90;;;;;;4865868;29;20267;-58
2022/08/16 10:15:11;;;;;;;6.97;6.07;;;31.10;99.90;;;;;;4866277;29;20645;-59
2022/08/16 10:17:45;;;;;;;6.50;5.87;;;31.10;99.90;;;;;;4868999;29;20350;-59
2022/08/16 10:20:33;;;;;;;7.10;5.90;;;30.90;99.90;;;;;;4872380;29;20590;-59
2022/08/16 10:23:02;;;;;;;8.87;6.23;;;30.70;99.90;;;;;;4874573;29;20733;-58
2022/08/16 10:25:36;;;;;;;6.37;5.77;;;30.80;99.90;;;;;;4877554;29;20743;-58
2022/08/16 10:28:25;;;;;;;7.33;6.67;;;31.30;99.90;;;;;;4873577;29;20583;-59
2022/08/16 10:30:57;;;;;;;10.90;6.37;;;31.70;99.90;;;;;;4877746;29;20326;-58
2022/08/16 10:33:29;;;;;;;7.30;6.10;;;31.60;99.90;;;;;;4877944;29;20699;-59
2022/08/16 10:36:04;;;;;;;8.63;6.50;;;31.20;99.90;;;;;;4878250;29;20240;-59
2022/08/16 10:38:36;;;;;;;7.73;5.43;;;31.20;99.90;;;;;;4878762;29;20255;-58
2022/08/16 10:41:05;;;;;;;6.23;5.63;;;31.90;99.90;;;;;;4875619;29;20718;-58
2022/08/16 10:43:35;;;;;;;6.97;5.57;;;32.00;99.90;;;;;;4862933;29;20700;-58
2022/08/16 10:46:07;;;;;;;6.27;5.77;;;32.10;99.90;;;;;;4877352;29;20701;-58
2022/08/16 10:48:57;;;;;;;6.80;4.90;;;32.30;99.90;;;;;;4875343;29;20228;-58
2022/08/16 10:51:27;;;;;;;5.70;5.00;;;32.40;99.90;;;;;;4876164;29;20705;-58
2022/08/16 10:54:16;;;;;;;5.63;4.73;;;32.50;99.90;;;;;;4871220;29;20230;-57
2022/08/16 10:56:57;;;;;;;6.63;4.73;;;32.70;99.90;;;;;;4875591;29;20232;-58
2022/08/16 10:59:26;;;;;;;5.47;4.80;;;32.90;99.90;;;;;;4875130;29;20295;-59
2022/08/16 11:02:00;;;;;;;5.83;5.00;;;33.20;99.90;;;;;;4874975;29;20255;-59
2022/08/16 11:04:50;;;;;;;7.73;5.03;;;33.30;99.90;;;;;;4878854;29;20241;-58
2022/08/16 11:07:37;;;;;;;7.37;4.53;;;33.60;99.90;;;;;;4875915;29;20368;-58
2022/08/16 11:10:16;;;;;;;5.17;4.57;;;33.80;99.90;;;;;;4859440;29;20365;-59
2022/08/16 11:13:06;;;;;;;6.10;4.87;;;34.00;99.90;;;;;;4869358;29;20356;-59
2022/08/16 11:15:56;;;;;;;5.80;5.30;;;34.40;99.90;;;;;;4870394;29;20217;-58
2022/08/16 11:18:28;;;;;;;7.50;5.17;;;34.60;99.90;;;;;;4872201;29;20276;-59
2022/08/16 11:21:19;;;;;;;7.80;5.60;;;34.30;99.90;;;;;;4868045;29;20237;-59
2022/08/16 11:23:56;;;;;;;6.93;5.67;;;33.40;99.90;;;;;;4870760;29;20312;-58
2022/08/16 11:26:27;;;;;;;6.20;5.30;;;32.70;99.90;;;;;;4869643;29;20235;-58
2022/08/16 11:28:56;;;;;;;5.70;4.90;;;31.80;99.90;;;;;;4869713;29;20232;-59
2022/08/16 11:31:41;;;;;;;5.67;4.43;;;31.40;99.90;;;;;;4872029;29;20776;-58
2022/08/16 11:34:13;;;;;;;6.10;4.83;;;31.10;99.90;;;;;;4876440;29;20259;-59
2022/08/16 11:36:51;;;;;;;5.07;4.57;;;30.90;99.90;;;;;;4875179;29;20692;-58
2022/08/16 11:39:28;;;;;;;6.47;5.00;;;31.20;99.90;;;;;;4876469;29;20243;-59
2022/08/16 11:41:59;;;;;;;5.53;4.33;;;32.20;99.90;;;;;;4873486;29;20271;-60
2022/08/16 11:44:29;;;;;;;11.23;4.37;;;33.20;99.90;;;;;;4874654;29;20850;-59
2022/08/16 11:47:19;;;;;;;5.10;4.50;;;34.00;99.30;;;;;;4875662;29;20226;-59
2022/08/16 11:49:48;;;;;;;5.47;4.03;;;34.10;98.00;;;;;;4875657;29;20232;-59
2022/08/16 11:52:18;;;;;;;4.60;4.20;;;33.40;98.50;;;;;;4856241;29;20814;-59
2022/08/16 11:54:48;;;;;;;4.27;3.87;;;32.90;98.40;;;;;;4876003;29;20579;-58
2022/08/16 11:57:24;;;;;;;4.90;3.77;;;32.60;99.40;;;;;;4870979;29;20712;-59
2022/08/16 11:59:53;;;;;;;6.17;4.63;;;32.50;99.20;;;;;;4872225;29;20231;-59
2022/08/16 12:02:21;;;;;;;4.60;4.07;;;32.50;97.70;;;;;;4867948;29;20321;-59
2022/08/16 12:04:59;;;;;;;4.83;4.27;;;32.70;98.90;;;;;;4870744;29;20226;-58
2022/08/16 12:07:29;;;;;;;4.40;4.00;;;32.70;98.90;;;;;;4873959;29;20231;-59
2022/08/16 12:10:00;;;;;;;6.60;4.60;;;32.70;98.90;;;;;;4873251;29;20313;-59
2022/08/16 12:12:31;;;;;;;5.47;4.30;;;32.60;99.00;;;;;;4876024;29;20232;-59
2022/08/16 12:15:01;;;;;;;6.13;4.63;;;32.60;99.10;;;;;;4880524;29;20328;-59
2022/08/16 12:17:30;;;;;;;4.93;4.37;;;32.50;98.80;;;;;;4873302;29;20678;-59
2022/08/16 12:20:00;;;;;;;6.63;4.47;;;32.40;98.90;;;;;;4873949;29;20240;-58
2022/08/16 12:22:30;;;;;;;5.73;4.07;;;32.30;99.10;;;;;;4871971;29;20258;-59
2022/08/16 12:25:05;;;;;;;4.80;4.30;;;32.50;99.80;;;;;;4872441;29;20346;-58
2022/08/16 12:27:34;;;;;;;8.53;4.20;;;32.60;99.20;;;;;;4874267;29;20228;-58
2022/08/16 12:30:09;;;;;;;5.20;3.73;;;32.30;98.60;;;;;;4855066;29;20623;-58
2022/08/16 12:32:49;;;;;;;5.23;4.10;;;32.00;98.60;;;;;;4874265;29;20739;-58
2022/08/16 12:35:23;;;;;;;6.63;3.93;;;31.80;98.40;;;;;;4872601;29;20271;-59
2022/08/16 12:37:54;;;;;;;5.13;4.13;;;31.90;98.30;;;;;;4873391;29;20311;-58
2022/08/16 12:40:30;;;;;;;5.17;3.67;;;31.80;98.20;;;;;;4873788;29;20245;-58
2022/08/16 12:43:01;;;;;;;7.80;4.00;;;31.70;98.60;;;;;;4854800;29;20692;-59
2022/08/16 12:45:31;;;;;;;6.40;4.00;;;31.70;98.70;;;;;;4872631;29;20896;-59
2022/08/16 12:51:03;;;;;;;4.90;4.20;;;31.50;99.10;;;;;;4838118;29;20750;-59
2022/08/16 12:53:42;;;;;;;6.47;4.30;;;31.60;99.30;;;;;;4869177;29;20710;-59
2022/08/16 12:56:12;;;;;;;4.93;4.30;;;31.60;99.20;;;;;;4865816;29;20248;-58
2022/08/16 12:58:40;;;;;;;4.47;3.60;;;31.70;99.10;;;;;;4875308;29;20232;-59
2022/08/16 13:01:18;;;;;;;4.63;3.23;;;31.60;96.80;;;;;;4873792;29;20263;-59
2022/08/16 13:03:50;;;;;;;3.80;3.50;;;31.40;97.70;;;;;;4871715;29;20246;-59
2022/08/16 13:06:39;;;;;;;8.43;3.60;;;31.30;98.20;;;;;;4872069;29;20253;-59
2022/08/16 13:09:19;;;;;;;6.33;3.40;;;31.40;96.90;;;;;;4873192;29;20655;-58
2022/08/16 13:11:58;;;;;;;5.43;3.47;;;31.00;97.20;;;;;;4872416;29;20268;-58
2022/08/16 13:14:29;;;;;;;3.70;3.40;;;31.00;97.70;;;;;;4873183;29;20236;-59
2022/08/16 13:17:01;;;;;;;4.87;3.53;;;31.10;97.70;;;;;;4870067;29;20639;-59
2022/08/16 13:19:30;;;;;;;5.47;3.60;;;31.10;98.10;;;;;;4862949;29;20584;-59
2022/08/16 13:22:19;;;;;;;4.13;3.73;;;31.00;97.80;;;;;;4862359;29;20250;-59
2022/08/16 13:24:49;;;;;;;6.87;4.00;;;31.10;98.40;;;;;;4869781;29;20334;-59